Dalmeny, Canada
Current Conditions -  °F | °C
As of 1:00 PM on Friday 28 Nov 2014 (Local Time) from CYXE Reporting Station
Light Snow Light Snow  
Wind Chill: -26°   Ceiling: 1300
Heat Index: -15°   Visibility: 2mi
Dew Point: -18°   Wind: 20mph
Humidity: 78%   Direction: 80°E
Pressure: 29.65"   Gusts: 26mph
Location:  52.33°N, 106.78°W
Report Text: CYXE 281900Z 08017G23KT 2SM -SN DRSN OVC013 M15/M18 A2965 RMK SN5SC3 VIS VRB 1-3 SLP086
Loading
Personal Weather Stations






























Interactive Weather Map New forecast layout! Learn more

10-Day Weather Forecast

Advertisements
Track Severe Weather on mobile